createdAt,value
2022-09-09T00:03:48.544Z,89.70
2022-09-09T00:09:01.926Z,90.00
2022-09-09T00:14:14.701Z,90.10
2022-09-09T00:19:24.462Z,90.20
2022-09-09T00:24:33.487Z,90.10
2022-09-09T00:29:43.959Z,90.10
2022-09-09T00:34:50.749Z,90.10
2022-09-09T00:39:58.733Z,90.10
2022-09-09T00:45:18.329Z,90.20
2022-09-09T00:50:36.157Z,90.20
2022-09-09T00:55:46.259Z,90.30
2022-09-09T01:00:53.974Z,90.20
2022-09-09T01:06:16.154Z,90.30
2022-09-09T01:11:24.688Z,90.40
2022-09-09T01:16:30.729Z,90.30
2022-09-09T01:21:43.554Z,90.20
2022-09-09T01:26:49.319Z,90.40
2022-09-09T01:31:57.349Z,90.50
2022-09-09T01:37:04.240Z,90.60
2022-09-09T01:42:11.303Z,90.70
2022-09-09T01:47:13.694Z,90.70
2022-09-09T01:52:16.318Z,90.70
2022-09-09T01:57:26.417Z,90.70
2022-09-09T02:02:33.507Z,90.70
2022-09-09T02:07:41.706Z,90.70
2022-09-09T02:12:49.867Z,90.70
2022-09-09T02:17:57.295Z,90.60
2022-09-09T02:23:02.340Z,90.90
2022-09-09T02:28:10.682Z,90.50
2022-09-09T02:33:15.377Z,90.50
2022-09-09T02:38:18.884Z,90.50
2022-09-09T02:43:23.289Z,90.50
2022-09-09T02:48:32.563Z,90.60
2022-09-09T02:53:42.817Z,90.70
2022-09-09T02:58:46.866Z,90.70
2022-09-09T03:03:49.307Z,90.60
2022-09-09T03:08:51.592Z,90.70
2022-09-09T03:13:56.470Z,90.70
2022-09-09T03:18:58.965Z,90.90
2022-09-09T03:24:02.025Z,90.90
2022-09-09T03:29:07.137Z,91.00
2022-09-09T03:34:09.760Z,91.00
2022-09-09T03:39:12.455Z,91.00
2022-09-09T03:44:16.559Z,91.00
2022-09-09T03:49:19.366Z,91.00
2022-09-09T03:54:22.029Z,90.90
2022-09-09T03:59:26.167Z,90.90
2022-09-09T04:04:29.113Z,91.00
2022-09-09T04:09:31.564Z,90.90
2022-09-09T04:14:47.180Z,91.00
2022-09-09T04:19:49.673Z,91.00
2022-09-09T04:24:51.991Z,90.90
2022-09-09T04:29:56.678Z,90.80
2022-09-09T04:34:59.183Z,90.80
2022-09-09T04:40:05.777Z,90.80
2022-09-09T04:45:11.128Z,90.80
2022-09-09T04:50:13.607Z,90.90
2022-09-09T04:55:16.170Z,91.00
2022-09-09T05:00:20.649Z,91.10
2022-09-09T05:05:24.746Z,91.10
2022-09-09T05:10:27.841Z,91.20
2022-09-09T05:15:32.060Z,91.10
2022-09-09T05:20:34.429Z,91.20
2022-09-09T05:25:37.040Z,91.10
2022-09-09T05:30:40.890Z,91.10
2022-09-09T05:35:43.602Z,91.10
2022-09-09T05:40:48.906Z,91.10
2022-09-09T05:46:03.996Z,91.00
2022-09-09T05:57:34.092Z,91.20
2022-09-09T06:02:38.524Z,91.00
2022-09-09T06:07:41.249Z,91.00
2022-09-09T06:12:44.217Z,91.00
2022-09-09T06:17:48.053Z,91.00
2022-09-09T06:22:50.438Z,91.00
2022-09-09T06:27:52.998Z,91.00
2022-09-09T06:33:01.440Z,91.00
2022-09-09T06:38:03.990Z,91.10
2022-09-09T06:43:06.752Z,91.00
2022-09-09T06:48:11.098Z,91.10
2022-09-09T06:53:17.070Z,91.10
2022-09-09T06:58:19.744Z,91.10
2022-09-09T07:03:23.932Z,91.10
2022-09-09T07:08:27.023Z,91.20
2022-09-09T07:13:29.679Z,91.20
2022-09-09T07:18:34.093Z,91.20
2022-09-09T07:23:36.709Z,91.30
2022-09-09T07:28:40.204Z,91.20
2022-09-09T07:33:45.267Z,91.20
2022-09-09T07:38:50.040Z,91.20
2022-09-09T07:44:06.101Z,91.10
2022-09-09T07:49:11.189Z,91.20
2022-09-09T07:54:15.951Z,91.10
2022-09-09T07:59:21.470Z,91.00
2022-09-09T08:04:29.890Z,90.90
2022-09-09T08:09:33.678Z,91.00
2022-09-09T08:15:05.539Z,91.10
2022-09-09T08:20:10.569Z,90.90
2022-09-09T08:25:13.643Z,90.80
2022-09-09T08:30:16.099Z,90.70
2022-09-09T08:35:21.350Z,90.70
2022-09-09T08:40:33.952Z,90.70
2022-09-09T08:45:51.740Z,90.80
2022-09-09T08:57:00.868Z,91.10
2022-09-09T09:02:16.487Z,91.30
2022-09-09T09:07:57.009Z,89.30
2022-09-09T09:25:17.552Z,81.20
2022-09-09T09:30:28.974Z,78.40
2022-09-09T09:35:35.170Z,78.40
2022-09-09T09:40:51.442Z,77.30
2022-09-09T09:46:14.340Z,74.20
2022-09-09T09:51:23.793Z,75.10
2022-09-09T09:56:31.592Z,73.70
2022-09-09T10:01:35.723Z,74.30
2022-09-09T10:06:38.856Z,74.60
2022-09-09T10:11:51.375Z,73.10
2022-09-09T10:17:07.816Z,69.40
2022-09-09T10:22:14.305Z,68.60
2022-09-09T10:27:26.109Z,71.40
2022-09-09T10:32:49.380Z,69.60
2022-09-09T10:38:07.055Z,69.50
2022-09-09T10:43:21.029Z,67.60
2022-09-09T10:48:43.646Z,69.10
2022-09-09T10:53:56.912Z,70.50
2022-09-09T10:59:09.164Z,69.70
2022-09-09T11:04:20.680Z,67.10
2022-09-09T11:09:28.570Z,68.80
2022-09-09T11:14:42.761Z,69.40
2022-09-09T11:19:46.422Z,69.10
2022-09-09T11:24:54.601Z,68.20
2022-09-09T11:30:55.530Z,66.90
2022-09-09T11:36:27.373Z,66.50
2022-09-09T11:41:37.410Z,67.40
2022-09-09T11:46:43.421Z,68.30
2022-09-09T11:51:46.102Z,70.00
2022-09-09T11:56:48.764Z,72.40
2022-09-09T12:01:58.091Z,73.50
2022-09-09T12:07:05.077Z,73.10
2022-09-09T12:12:28.367Z,72.40
2022-09-09T12:17:42.952Z,71.00
2022-09-09T12:23:22.911Z,70.70
2022-09-09T12:28:37.552Z,71.00
2022-09-09T12:33:42.174Z,70.20
2022-09-09T12:38:45.658Z,66.50
2022-09-09T12:43:48.757Z,68.40
2022-09-09T12:48:53.958Z,68.60
2022-09-09T12:53:58.924Z,69.10
2022-09-09T12:59:02.442Z,70.20
2022-09-09T13:04:22.116Z,72.10
2022-09-09T13:09:25.004Z,68.50
2022-09-09T13:14:32.671Z,68.40
2022-09-09T13:19:39.512Z,69.50
2022-09-09T13:24:41.706Z,70.00
2022-09-09T13:29:53.717Z,70.70
2022-09-09T13:35:07.048Z,71.10
2022-09-09T13:40:21.774Z,71.50
2022-09-09T13:45:29.113Z,73.00
2022-09-09T13:50:33.725Z,74.20
2022-09-09T13:55:38.697Z,73.80
2022-09-09T14:00:42.108Z,75.10
2022-09-09T14:05:48.479Z,75.20
2022-09-09T14:10:51.161Z,74.70
2022-09-09T14:15:54.232Z,73.90
2022-09-09T14:20:58.946Z,72.50
2022-09-09T14:26:01.693Z,71.60
2022-09-09T14:31:05.651Z,72.40
2022-09-09T14:36:12.011Z,72.00
2022-09-09T14:41:17.586Z,72.80
2022-09-09T14:46:21.624Z,72.40
2022-09-09T14:51:27.404Z,72.10
2022-09-09T14:56:32.708Z,72.20
2022-09-09T15:01:35.495Z,72.50
2022-09-09T15:06:39.796Z,72.70
2022-09-09T15:11:42.814Z,72.60
2022-09-09T15:16:45.313Z,72.60
2022-09-09T15:21:49.632Z,73.00
2022-09-09T15:26:52.662Z,73.50
2022-09-09T15:31:56.571Z,73.70
2022-09-09T15:37:00.489Z,74.50
2022-09-09T15:42:06.637Z,76.40
2022-09-09T15:47:11.649Z,76.10
2022-09-09T15:52:22.726Z,77.90
2022-09-09T15:57:28.110Z,79.70
2022-09-09T16:02:42.526Z,79.60
2022-09-09T16:07:50.180Z,80.60
2022-09-09T16:12:59.203Z,80.80
2022-09-09T16:18:02.137Z,81.40
2022-09-09T16:23:09.298Z,81.80
2022-09-09T16:28:12.698Z,82.30
2022-09-09T16:33:21.685Z,83.00
2022-09-09T16:38:32.714Z,82.30
2022-09-09T16:43:41.664Z,82.90
2022-09-09T16:48:52.558Z,82.30
2022-09-09T16:54:00.973Z,82.10
2022-09-09T16:59:06.102Z,83.00
2022-09-09T17:04:12.935Z,83.10
2022-09-09T17:09:25.503Z,83.80
2022-09-09T17:14:35.168Z,84.20
2022-09-09T17:19:41.166Z,84.10
2022-09-09T17:25:11.394Z,84.20
2022-09-09T17:30:28.799Z,85.00
2022-09-09T17:38:37.924Z,84.00
2022-09-09T17:43:41.872Z,84.70
2022-09-09T17:48:46.125Z,84.80
2022-09-09T17:53:52.091Z,84.60
2022-09-09T17:58:55.098Z,84.80
2022-09-09T18:04:00.437Z,84.80
2022-09-09T18:09:08.226Z,85.20
2022-09-09T18:14:16.026Z,85.40
2022-09-09T18:19:24.048Z,85.30
2022-09-09T18:30:40.193Z,85.90
2022-09-09T18:35:43.410Z,85.40
2022-09-09T18:40:46.575Z,85.30
2022-09-09T18:45:51.038Z,85.40
2022-09-09T18:50:54.903Z,85.30
2022-09-09T18:56:02.363Z,85.50
2022-09-09T19:01:10.803Z,85.80
2022-09-09T19:06:16.223Z,85.90
2022-09-09T19:11:21.019Z,86.10
2022-09-09T19:16:26.671Z,85.60
2022-09-09T19:21:38.115Z,85.80
2022-09-09T19:26:42.942Z,86.00
2022-09-09T19:32:02.200Z,85.70
2022-09-09T19:37:11.729Z,85.80
2022-09-09T19:42:18.110Z,85.50
2022-09-09T19:47:22.455Z,85.70
2022-09-09T19:52:25.092Z,86.10
2022-09-09T19:57:29.348Z,86.00
2022-09-09T20:02:33.557Z,86.10
2022-09-09T20:07:36.399Z,86.40
2022-09-09T20:12:40.070Z,86.60
2022-09-09T20:17:44.848Z,86.70
2022-09-09T20:22:52.080Z,87.00
2022-09-09T20:27:58.224Z,87.60
2022-09-09T20:33:05.192Z,88.70
2022-09-09T20:38:07.840Z,87.30
2022-09-09T20:43:12.203Z,87.30
2022-09-09T20:48:17.498Z,87.40
2022-09-09T20:53:21.243Z,87.70
2022-09-09T20:58:23.992Z,87.60
2022-09-09T21:03:28.952Z,88.10
2022-09-09T21:08:31.758Z,88.50
2022-09-09T21:13:39.119Z,88.80
2022-09-09T21:18:43.462Z,89.20
2022-09-09T21:23:46.600Z,89.70
2022-09-09T21:28:52.152Z,89.70
2022-09-09T21:33:56.746Z,90.00
2022-09-09T21:39:00.063Z,90.50
2022-09-09T21:44:03.317Z,89.60
2022-09-09T21:49:07.464Z,89.60
2022-09-09T21:54:10.264Z,89.70
2022-09-09T21:59:13.050Z,89.70
2022-09-09T22:04:17.374Z,89.50
2022-09-09T22:09:19.978Z,89.10
2022-09-09T22:14:23.384Z,89.30
2022-09-09T22:19:27.769Z,89.10
2022-09-09T22:24:30.581Z,89.10
2022-09-09T22:29:33.168Z,88.70
2022-09-09T22:34:37.347Z,88.80
2022-09-09T22:39:40.242Z,88.90
2022-09-09T22:44:42.759Z,88.60
2022-09-09T22:49:47.207Z,88.50
2022-09-09T22:54:51.007Z,88.70
2022-09-09T22:59:53.568Z,88.60
2022-09-09T23:04:57.511Z,88.70
2022-09-09T23:10:00.117Z,88.80
2022-09-09T23:15:02.719Z,88.70
2022-09-09T23:20:09.554Z,88.70
2022-09-09T23:25:12.153Z,88.90
2022-09-09T23:30:15.233Z,88.80
2022-09-09T23:35:19.748Z,88.80
2022-09-09T23:40:22.813Z,89.00
2022-09-09T23:45:25.486Z,89.00
2022-09-09T23:50:29.782Z,88.90
2022-09-09T23:55:32.289Z,88.80
